Time;durP1;ratioP1;P1;durP2;ratioP2;P2;SDS_P1;SDS_P2;PMS_P1;PMS_P2;Temp;Humidity;BMP_temperature;BMP_pressure;BME280_temperature;BME280_humidity;BME280_pressure;Samples;Min_cycle;Max_cycle;Signal;HPM_P1;HPM_P2
2023/08/18 04:00:25;;;;;;;6.33;3.77;;;20.30;97.30;;;;;;6098412;23;21542;31
2023/08/18 04:02:51;;;;;;;9.13;3.00;;;20.30;97.30;;;;;;4943412;29;20467;-91
2023/08/18 04:05:16;;;;;;;4.17;2.90;;;20.30;97.30;;;;;;4953758;28;20423;-90
2023/08/18 04:07:42;;;;;;;5.93;2.70;;;20.40;97.30;;;;;;4955346;29;20246;-90
2023/08/18 04:10:08;;;;;;;5.70;3.70;;;20.40;97.30;;;;;;4955406;29;20190;-90
2023/08/18 04:12:34;;;;;;;7.93;3.90;;;20.40;97.30;;;;;;4918942;23;20235;-72
2023/08/18 04:15:00;;;;;;;8.27;5.10;;;20.40;97.30;;;;;;4926619;29;20232;-72
2023/08/18 04:17:26;;;;;;;7.80;4.60;;;20.40;97.30;;;;;;4912453;29;20447;-71
2023/08/18 04:19:51;;;;;;;8.20;4.90;;;20.40;97.30;;;;;;4909203;29;20708;-72
2023/08/18 04:22:17;;;;;;;9.93;4.83;;;20.40;97.30;;;;;;4911299;29;20307;-71
2023/08/18 04:24:43;;;;;;;8.20;3.73;;;20.40;97.30;;;;;;4915269;29;20235;-72
2023/08/18 04:27:08;;;;;;;10.37;4.03;;;20.40;97.30;;;;;;4932182;29;20196;-72
2023/08/18 04:29:34;;;;;;;9.70;4.33;;;20.40;97.30;;;;;;4932159;29;20212;-72
2023/08/18 04:31:59;;;;;;;3.97;3.53;;;20.50;97.30;;;;;;4932685;29;20270;-72
2023/08/18 04:34:25;;;;;;;4.47;3.33;;;20.40;97.30;;;;;;4915459;29;20666;-72
2023/08/18 04:36:51;;;;;;;6.30;3.90;;;20.40;97.30;;;;;;4932741;29;20449;-72
2023/08/18 04:39:16;;;;;;;4.63;4.33;;;20.50;97.30;;;;;;4915179;29;20304;-72
2023/08/18 04:41:42;;;;;;;11.53;4.00;;;20.50;97.30;;;;;;4915316;29;20239;-72
2023/08/18 04:44:08;;;;;;;7.00;4.37;;;20.50;97.30;;;;;;4932500;29;20208;-72
2023/08/18 04:46:33;;;;;;;4.53;4.23;;;20.50;97.30;;;;;;4915153;29;20187;-72
2023/08/18 04:48:59;;;;;;;5.67;4.07;;;20.50;97.30;;;;;;4915035;29;20302;-72
2023/08/18 04:51:25;;;;;;;5.83;4.90;;;20.50;97.30;;;;;;4932128;29;20208;-72
2023/08/18 04:53:50;;;;;;;5.07;3.57;;;20.50;97.30;;;;;;4914913;29;20671;-72
2023/08/18 04:56:16;;;;;;;7.70;4.63;;;20.50;97.30;;;;;;4914984;29;20184;-72
2023/08/18 04:58:42;;;;;;;8.10;3.23;;;20.50;97.30;;;;;;4915074;29;20262;-72
2023/08/18 05:01:08;;;;;;;8.67;4.10;;;20.50;97.30;;;;;;4915247;29;20215;-72
2023/08/18 05:03:36;;;;;;;4.27;4.00;;;20.60;97.30;;;;;;4931705;29;20188;-72
2023/08/18 05:06:07;;;;;;;5.83;5.17;;;20.60;97.30;;;;;;4932068;29;20427;-72
2023/08/18 05:08:34;;;;;;;9.77;5.60;;;20.60;97.30;;;;;;4931837;29;20607;-72
2023/08/18 05:11:07;;;;;;;5.50;4.40;;;20.60;97.30;;;;;;4936396;29;20462;-72
2023/08/18 05:13:35;;;;;;;6.03;4.60;;;20.60;97.30;;;;;;4950740;28;20642;-72
2023/08/18 05:16:01;;;;;;;11.27;4.27;;;20.60;97.30;;;;;;4951058;28;20420;-72
2023/08/18 05:18:29;;;;;;;5.33;3.13;;;20.60;97.30;;;;;;4933392;28;20520;-72
2023/08/18 05:21:00;;;;;;;12.53;6.63;;;20.60;97.30;;;;;;4950938;28;20198;-72
2023/08/18 05:23:27;;;;;;;7.37;4.23;;;20.60;97.30;;;;;;4946102;28;20435;-72
2023/08/18 05:25:54;;;;;;;24.40;5.63;;;20.60;97.30;;;;;;4933853;29;20435;-72
2023/08/18 05:28:24;;;;;;;14.47;6.23;;;20.70;97.30;;;;;;4933740;28;20466;-70
2023/08/18 05:30:51;;;;;;;10.33;6.90;;;20.60;97.30;;;;;;4942254;29;20627;-70
2023/08/18 05:33:16;;;;;;;12.97;7.30;;;20.60;97.30;;;;;;4949333;28;20442;-70
2023/08/18 05:35:42;;;;;;;5.20;4.77;;;20.60;97.30;;;;;;4930847;29;20431;-71
2023/08/18 05:38:11;;;;;;;14.00;5.83;;;20.60;97.30;;;;;;4931716;29;20661;-70
2023/08/18 05:40:43;;;;;;;21.33;10.83;;;20.70;97.30;;;;;;4933368;28;20203;-70
2023/08/18 05:43:09;;;;;;;12.07;5.40;;;20.70;97.30;;;;;;4951751;28;20513;-70
2023/08/18 05:45:38;;;;;;;7.40;5.20;;;20.70;97.30;;;;;;4950784;28;20432;-71
2023/08/18 05:48:04;;;;;;;7.10;4.23;;;20.60;97.30;;;;;;4933215;29;20529;-71
2023/08/18 05:50:31;;;;;;;5.17;3.87;;;20.70;97.30;;;;;;4947610;28;20431;-71
2023/08/18 05:52:57;;;;;;;11.20;6.67;;;20.60;97.30;;;;;;4961706;28;20456;-71
2023/08/18 05:55:23;;;;;;;11.20;6.83;;;20.60;97.30;;;;;;4950388;28;20454;-71
2023/08/18 05:57:49;;;;;;;10.10;6.50;;;20.70;97.30;;;;;;4947966;28;20242;-71
2023/08/18 06:00:15;;;;;;;12.63;5.40;;;20.70;97.30;;;;;;4947964;28;20781;-71
2023/08/18 06:02:42;;;;;;;7.93;7.53;;;20.70;97.30;;;;;;4930579;28;20183;-71
2023/08/18 06:05:14;;;;;;;4.63;3.53;;;20.70;97.30;;;;;;4948459;28;20693;-71
2023/08/18 06:07:40;;;;;;;6.63;6.23;;;20.70;97.30;;;;;;4949614;28;20946;-71
2023/08/18 06:10:07;;;;;;;9.07;4.80;;;20.70;97.30;;;;;;4940207;29;20431;-71
2023/08/18 06:12:32;;;;;;;9.87;4.73;;;20.70;97.30;;;;;;4932770;28;20307;-71
2023/08/18 06:14:58;;;;;;;3.17;3.00;;;20.70;97.30;;;;;;4932817;29;20517;-71
2023/08/18 06:17:23;;;;;;;5.23;3.57;;;20.70;97.30;;;;;;4950388;28;20179;-71
2023/08/18 06:19:49;;;;;;;8.67;4.80;;;20.70;97.30;;;;;;4954089;28;20174;-71
2023/08/18 06:22:14;;;;;;;6.30;3.83;;;20.70;97.30;;;;;;4954279;28;20257;-71
2023/08/18 06:24:41;;;;;;;13.53;5.00;;;20.80;97.30;;;;;;4950169;28;20428;-71
2023/08/18 06:27:07;;;;;;;7.97;4.80;;;20.80;97.30;;;;;;4933422;29;20183;-71
2023/08/18 06:29:32;;;;;;;5.53;3.40;;;20.80;97.30;;;;;;4952685;28;20873;-71
2023/08/18 06:31:58;;;;;;;4.80;4.00;;;20.80;97.30;;;;;;4936824;29;20290;-71
2023/08/18 06:34:23;;;;;;;10.53;4.70;;;20.80;97.30;;;;;;4936913;28;20202;-71
2023/08/18 06:36:49;;;;;;;8.33;5.53;;;20.80;97.30;;;;;;4937333;29;20202;-71
2023/08/18 06:39:14;;;;;;;16.33;7.00;;;20.80;97.30;;;;;;4954297;28;20191;-71
2023/08/18 06:41:42;;;;;;;16.90;7.90;;;20.80;97.30;;;;;;4951863;28;20215;-71
2023/08/18 06:44:08;;;;;;;11.13;6.50;;;20.80;97.30;;;;;;4958409;28;20195;-71
2023/08/18 06:46:33;;;;;;;7.20;5.07;;;20.80;97.30;;;;;;4936389;28;20422;-71
2023/08/18 06:49:00;;;;;;;10.17;5.50;;;20.80;97.30;;;;;;4934074;29;20195;-71
2023/08/18 06:51:26;;;;;;;13.43;6.27;;;20.80;97.30;;;;;;4936567;28;20239;-71
2023/08/18 06:53:52;;;;;;;7.30;5.00;;;20.90;97.30;;;;;;4953467;28;20454;-71
2023/08/18 06:56:17;;;;;;;9.07;4.10;;;20.90;97.30;;;;;;4953858;28;20194;-71
2023/08/18 06:58:43;;;;;;;7.30;5.40;;;20.90;97.30;;;;;;4936205;28;20683;-71
2023/08/18 07:01:08;;;;;;;7.00;4.27;;;20.90;97.30;;;;;;4959969;28;20194;-71
2023/08/18 07:03:34;;;;;;;4.90;4.57;;;20.90;97.30;;;;;;4954763;28;20619;-71
2023/08/18 07:06:00;;;;;;;7.20;4.17;;;21.00;97.30;;;;;;4953095;28;20613;-71
2023/08/18 07:08:26;;;;;;;7.33;4.70;;;21.00;97.30;;;;;;4953482;28;20203;-71
2023/08/18 07:10:51;;;;;;;8.53;4.20;;;21.00;97.30;;;;;;4960591;28;20251;-71
2023/08/18 07:13:17;;;;;;;10.10;6.00;;;21.00;97.30;;;;;;4953149;28;20403;-71
2023/08/18 07:15:42;;;;;;;11.60;4.73;;;21.00;97.30;;;;;;4935984;28;20179;-71
2023/08/18 07:18:08;;;;;;;13.23;6.67;;;21.00;97.30;;;;;;4935919;29;20187;-71
2023/08/18 07:20:33;;;;;;;12.07;5.43;;;21.00;97.30;;;;;;4935754;28;20283;-71
2023/08/18 07:22:59;;;;;;;7.00;4.67;;;21.00;97.30;;;;;;4940963;28;20175;-71
2023/08/18 07:25:25;;;;;;;4.33;2.97;;;21.00;97.30;;;;;;4938732;29;20210;-70
2023/08/18 07:27:50;;;;;;;6.00;3.40;;;21.00;97.30;;;;;;4935832;29;20229;-71
2023/08/18 07:30:16;;;;;;;12.60;5.40;;;21.00;97.30;;;;;;4935604;29;20183;-70
2023/08/18 07:32:41;;;;;;;9.40;4.93;;;21.00;97.30;;;;;;4935569;28;20180;-71
2023/08/18 07:35:08;;;;;;;4.57;3.30;;;20.90;97.30;;;;;;4935819;29;20183;-71
2023/08/18 07:37:35;;;;;;;11.83;4.83;;;20.90;97.30;;;;;;4952873;28;20185;-70
2023/08/18 07:40:05;;;;;;;5.80;3.77;;;21.00;97.30;;;;;;4935429;29;20430;-71
2023/08/18 07:42:30;;;;;;;8.10;6.20;;;21.00;97.30;;;;;;4953911;28;20454;-70
2023/08/18 07:44:56;;;;;;;11.17;4.57;;;20.90;97.30;;;;;;4959918;28;20853;-70
2023/08/18 07:47:21;;;;;;;6.10;3.40;;;20.90;97.30;;;;;;4952918;28;20651;-70
2023/08/18 07:49:47;;;;;;;19.10;7.73;;;21.00;97.30;;;;;;4960315;28;20215;-70
2023/08/18 07:52:13;;;;;;;8.57;4.13;;;21.00;97.30;;;;;;4952451;28;20683;-71
2023/08/18 07:54:38;;;;;;;17.60;6.70;;;20.90;97.30;;;;;;4952173;28;20727;-70
2023/08/18 07:57:04;;;;;;;15.50;7.07;;;21.00;97.30;;;;;;4940082;28;20175;-70
2023/08/18 07:59:30;;;;;;;8.60;6.47;;;21.00;97.30;;;;;;4954916;28;20187;-70
2023/08/18 08:01:55;;;;;;;12.20;5.23;;;21.00;97.30;;;;;;4958913;28;20494;-70
2023/08/18 08:04:21;;;;;;;25.70;5.00;;;21.10;97.30;;;;;;4934343;29;20277;-70
2023/08/18 08:06:47;;;;;;;18.83;6.83;;;21.10;97.30;;;;;;4933199;28;20213;-70
2023/08/18 08:09:12;;;;;;;27.27;7.50;;;21.20;97.30;;;;;;4952087;28;20234;-70
2023/08/18 08:11:38;;;;;;;9.60;5.93;;;21.20;97.30;;;;;;4934258;28;20474;-70
2023/08/18 08:14:03;;;;;;;17.37;8.23;;;21.20;97.30;;;;;;4952327;28;20266;-70
2023/08/18 08:16:30;;;;;;;18.80;8.00;;;21.30;97.30;;;;;;4952165;28;20190;-70
2023/08/18 08:18:55;;;;;;;8.90;5.60;;;21.30;97.30;;;;;;4935223;29;20276;-70
2023/08/18 08:21:21;;;;;;;13.67;7.47;;;21.40;97.30;;;;;;4934668;29;20471;-70
2023/08/18 08:23:47;;;;;;;16.43;8.03;;;21.40;97.30;;;;;;4942707;28;20222;-70
2023/08/18 08:26:12;;;;;;;21.60;8.70;;;21.40;97.30;;;;;;4951938;28;20203;-70
2023/08/18 08:28:38;;;;;;;13.80;6.70;;;21.50;97.30;;;;;;4953689;28;20478;-70
2023/08/18 08:31:04;;;;;;;13.87;7.07;;;21.50;97.30;;;;;;4958105;28;20655;-70
2023/08/18 08:33:31;;;;;;;16.60;6.90;;;21.50;97.30;;;;;;4934305;28;20187;-70
2023/08/18 08:35:57;;;;;;;15.30;9.60;;;21.50;97.30;;;;;;4951800;28;20182;-70
2023/08/18 08:38:23;;;;;;;21.60;6.57;;;21.60;97.30;;;;;;4959908;28;20422;-69
2023/08/18 08:40:54;;;;;;;15.30;8.40;;;21.60;97.30;;;;;;4934083;28;20683;-69
2023/08/18 08:43:20;;;;;;;14.73;8.83;;;21.60;97.30;;;;;;4951680;28;20225;-69
2023/08/18 08:45:46;;;;;;;17.73;6.97;;;21.70;97.30;;;;;;4941966;28;20896;-69
2023/08/18 08:48:12;;;;;;;9.70;4.83;;;21.80;97.30;;;;;;4951467;28;20217;-69
2023/08/18 08:50:40;;;;;;;9.73;6.03;;;21.80;97.30;;;;;;4950857;28;20247;-69
2023/08/18 08:53:09;;;;;;;10.93;7.00;;;21.80;97.30;;;;;;4934042;29;20946;-69
2023/08/18 08:55:36;;;;;;;15.90;7.23;;;21.80;97.30;;;;;;4959105;28;20421;-70
2023/08/18 08:58:02;;;;;;;17.10;7.20;;;21.90;97.30;;;;;;4934022;29;20477;-69
2023/08/18 09:00:29;;;;;;;15.40;7.97;;;21.90;97.30;;;;;;4933890;29;20447;-69
2023/08/18 09:03:00;;;;;;;14.57;6.10;;;22.00;97.30;;;;;;4951146;28;21002;-69
2023/08/18 09:05:28;;;;;;;8.97;5.10;;;22.00;97.30;;;;;;4933797;29;20431;-69
2023/08/18 09:07:53;;;;;;;10.93;6.43;;;22.00;97.30;;;;;;4951244;28;20462;-69
2023/08/18 09:10:19;;;;;;;11.70;5.10;;;22.00;97.30;;;;;;4951144;28;20426;-69
2023/08/18 09:12:46;;;;;;;15.00;7.20;;;22.10;97.30;;;;;;4951158;28;20222;-69
2023/08/18 09:15:12;;;;;;;9.67;5.73;;;22.10;97.30;;;;;;4951190;28;20183;-70
2023/08/18 09:17:38;;;;;;;5.93;3.70;;;22.10;97.30;;;;;;4951238;28;20422;-69
2023/08/18 09:20:04;;;;;;;11.33;5.20;;;22.10;97.30;;;;;;4933887;29;20441;-70
2023/08/18 09:22:30;;;;;;;13.37;6.47;;;22.10;97.30;;;;;;4933867;29;20183;-69
2023/08/18 09:24:56;;;;;;;15.57;8.47;;;22.10;97.30;;;;;;4953265;28;20488;-69
2023/08/18 09:27:22;;;;;;;8.10;4.43;;;22.10;97.30;;;;;;4936271;29;20207;-69
2023/08/18 09:29:48;;;;;;;14.77;5.93;;;22.10;97.30;;;;;;4950200;28;20848;-69
2023/08/18 09:32:14;;;;;;;17.87;5.83;;;22.20;97.30;;;;;;4949557;28;20959;-69
2023/08/18 09:34:44;;;;;;;4.97;3.70;;;22.20;97.30;;;;;;4933566;29;20655;-69
2023/08/18 09:37:10;;;;;;;11.80;6.80;;;22.20;97.30;;;;;;4933303;29;20478;-69
2023/08/18 09:39:35;;;;;;;9.90;5.60;;;22.30;97.30;;;;;;4933387;28;20434;-69
2023/08/18 09:42:02;;;;;;;15.87;8.00;;;22.40;97.30;;;;;;4950455;28;20620;-69
2023/08/18 09:44:28;;;;;;;8.60;4.33;;;22.40;97.30;;;;;;4950649;28;20198;-69
2023/08/18 09:46:58;;;;;;;9.80;4.57;;;22.40;97.30;;;;;;4933313;28;20550;-69
2023/08/18 09:49:25;;;;;;;9.10;6.10;;;22.40;97.30;;;;;;4959161;28;20508;-69
2023/08/18 09:51:52;;;;;;;13.70;7.87;;;22.50;97.30;;;;;;4932906;28;20971;-69
2023/08/18 09:54:19;;;;;;;13.90;6.77;;;22.50;97.30;;;;;;4951046;28;20895;-69
2023/08/18 09:56:50;;;;;;;11.07;5.70;;;22.50;97.30;;;;;;4934632;28;20427;-69
2023/08/18 09:59:25;;;;;;;5.97;5.47;;;22.50;97.30;;;;;;4938873;29;20453;-69
2023/08/18 10:01:52;;;;;;;7.70;5.10;;;22.50;97.30;;;;;;4940864;28;20452;-69
2023/08/18 10:04:22;;;;;;;15.90;5.57;;;22.60;97.30;;;;;;4933279;29;20434;-69
2023/08/18 10:06:49;;;;;;;16.60;6.67;;;22.60;97.30;;;;;;4932881;29;20439;-69
2023/08/18 10:09:14;;;;;;;6.33;4.87;;;22.60;97.30;;;;;;4955587;28;20470;-68
2023/08/18 10:11:41;;;;;;;9.80;7.40;;;22.60;97.30;;;;;;4952531;28;20978;-67
2023/08/18 10:14:07;;;;;;;5.67;4.73;;;22.60;97.30;;;;;;4945117;28;20178;-68
2023/08/18 10:16:35;;;;;;;11.53;4.77;;;22.60;97.30;;;;;;4953567;28;20919;-68
2023/08/18 10:19:00;;;;;;;10.60;4.80;;;22.60;97.30;;;;;;4942576;28;20455;-68
2023/08/18 10:21:27;;;;;;;14.07;6.33;;;22.60;97.30;;;;;;4950008;28;21046;-69
2023/08/18 10:23:53;;;;;;;7.20;4.87;;;22.60;97.30;;;;;;4933449;28;20539;-68
2023/08/18 10:26:18;;;;;;;13.43;7.43;;;22.60;97.30;;;;;;4955900;28;20999;-68
2023/08/18 10:28:45;;;;;;;5.93;5.20;;;22.60;97.30;;;;;;4951584;28;20245;-68
2023/08/18 10:31:14;;;;;;;7.37;5.07;;;22.60;97.30;;;;;;4950476;28;20210;-68
2023/08/18 10:33:47;;;;;;;11.37;6.43;;;22.60;97.30;;;;;;4950060;28;20511;-68
2023/08/18 10:36:19;;;;;;;6.50;4.23;;;22.70;97.30;;;;;;4932829;29;20438;-68
2023/08/18 10:38:44;;;;;;;8.37;5.60;;;22.70;97.30;;;;;;4949871;28;20437;-68
2023/08/18 10:41:11;;;;;;;11.53;6.93;;;22.70;97.30;;;;;;4949944;28;20534;-68
2023/08/18 10:43:47;;;;;;;11.83;5.83;;;22.80;97.30;;;;;;4949794;28;20191;-68
2023/08/18 10:46:13;;;;;;;6.50;5.03;;;22.80;97.30;;;;;;4926333;29;20434;-68
2023/08/18 10:48:39;;;;;;;5.30;5.00;;;22.80;97.30;;;;;;4949183;28;20467;-68
2023/08/18 10:51:05;;;;;;;7.73;6.20;;;22.90;97.30;;;;;;4957934;28;20207;-68
2023/08/18 10:53:38;;;;;;;8.77;4.47;;;22.90;97.30;;;;;;4932055;29;20453;-68
2023/08/18 10:56:04;;;;;;;10.13;4.53;;;22.90;97.30;;;;;;4931724;29;20427;-68
2023/08/18 10:58:31;;;;;;;9.43;4.13;;;23.00;97.30;;;;;;4932557;29;20966;-68
2023/08/18 11:00:56;;;;;;;14.20;6.43;;;23.00;97.30;;;;;;4932361;28;20861;-68
2023/08/18 11:03:22;;;;;;;6.17;4.70;;;23.10;97.30;;;;;;4940077;29;20435;-68
2023/08/18 11:05:48;;;;;;;7.30;5.87;;;23.20;97.30;;;;;;4932605;28;20183;-68
2023/08/18 11:08:13;;;;;;;13.00;7.90;;;23.20;97.30;;;;;;4932215;29;20993;-67
2023/08/18 11:10:40;;;;;;;8.93;4.73;;;23.30;97.30;;;;;;4932104;28;20256;-67
2023/08/18 11:13:10;;;;;;;12.00;5.80;;;23.40;97.30;;;;;;4949676;28;20191;-68
2023/08/18 11:15:36;;;;;;;7.23;5.13;;;23.40;97.30;;;;;;4951789;28;20419;-68
2023/08/18 11:18:03;;;;;;;8.93;4.83;;;23.50;97.30;;;;;;4935563;28;20482;-67
2023/08/18 11:20:28;;;;;;;11.03;4.97;;;23.60;97.30;;;;;;4950710;28;20686;-67
2023/08/18 11:22:56;;;;;;;8.53;4.90;;;23.60;97.30;;;;;;4951450;28;20435;-67
2023/08/18 11:25:23;;;;;;;8.57;5.53;;;23.60;97.30;;;;;;4954361;28;20658;-67
2023/08/18 11:27:51;;;;;;;7.23;5.63;;;23.60;97.30;;;;;;4936913;28;20698;-67
2023/08/18 11:30:18;;;;;;;16.80;7.97;;;23.70;97.30;;;;;;4952463;28;20481;-67
2023/08/18 11:32:45;;;;;;;15.47;6.47;;;23.70;97.30;;;;;;4934298;28;20947;-67
2023/08/18 11:35:12;;;;;;;6.90;6.50;;;23.70;97.30;;;;;;4932713;29;20973;-68
2023/08/18 11:37:44;;;;;;;10.70;3.63;;;23.70;97.30;;;;;;4937724;29;20415;-67
2023/08/18 11:40:15;;;;;;;7.33;3.90;;;23.80;97.30;;;;;;4952710;28;20437;-68
2023/08/18 11:42:41;;;;;;;9.27;4.47;;;23.80;97.30;;;;;;4935102;29;20426;-67
2023/08/18 11:45:09;;;;;;;16.00;5.63;;;23.80;97.30;;;;;;4950604;28;20423;-67
2023/08/18 11:47:36;;;;;;;5.50;4.10;;;23.90;97.30;;;;;;4951207;28;20422;-67
2023/08/18 11:50:05;;;;;;;14.07;7.00;;;23.90;97.30;;;;;;4942475;28;20985;-67
2023/08/18 11:52:44;;;;;;;6.60;4.87;;;24.00;97.30;;;;;;4952824;28;20899;-67
2023/08/18 11:55:11;;;;;;;10.87;7.13;;;24.10;97.30;;;;;;4925466;29;20483;-67
2023/08/18 11:57:40;;;;;;;13.13;4.70;;;24.10;97.30;;;;;;4948602;28;20923;-67
2023/08/18 12:00:13;;;;;;;6.00;5.23;;;24.20;97.30;;;;;;4943764;28;20432;-67
2023/08/18 12:02:46;;;;;;;13.67;4.47;;;24.30;97.30;;;;;;4932810;29;20419;-65
2023/08/18 12:05:22;;;;;;;8.00;5.17;;;24.50;97.30;;;;;;4951102;28;20422;-67
2023/08/18 12:08:00;;;;;;;9.13;5.77;;;24.50;97.30;;;;;;4933737;28;20481;-66
2023/08/18 12:10:26;;;;;;;9.77;5.30;;;24.50;97.30;;;;;;4947515;28;20473;-67
2023/08/18 12:12:56;;;;;;;8.47;4.70;;;24.60;97.30;;;;;;4951240;28;20442;-67
2023/08/18 12:15:24;;;;;;;14.37;7.07;;;24.70;97.30;;;;;;4931512;29;20474;-66
2023/08/18 12:17:50;;;;;;;7.70;4.63;;;24.70;97.30;;;;;;4946619;28;20506;-67
2023/08/18 12:20:19;;;;;;;6.20;4.73;;;24.60;97.30;;;;;;4948902;28;20507;-67
2023/08/18 12:22:50;;;;;;;11.40;5.53;;;24.60;97.30;;;;;;4929987;29;20614;-67
2023/08/18 12:25:16;;;;;;;15.33;8.43;;;24.60;97.30;;;;;;4946114;28;20421;-67
2023/08/18 12:27:46;;;;;;;10.40;4.00;;;24.60;97.30;;;;;;4931846;29;20426;-67
2023/08/18 12:30:15;;;;;;;7.90;4.83;;;24.80;97.30;;;;;;4929781;29;20481;-67
2023/08/18 12:32:42;;;;;;;9.27;4.90;;;24.90;97.30;;;;;;4928067;29;20423;-66
2023/08/18 12:35:08;;;;;;;5.87;4.10;;;25.10;97.30;;;;;;4952782;28;20418;-67
2023/08/18 12:37:34;;;;;;;7.00;4.43;;;25.30;97.30;;;;;;4949962;28;20419;-66
2023/08/18 12:39:59;;;;;;;9.10;4.37;;;25.50;97.30;;;;;;4950413;28;20934;-67
2023/08/18 12:42:25;;;;;;;12.37;6.33;;;25.70;97.30;;;;;;4949090;28;20203;-66
2023/08/18 12:44:51;;;;;;;5.80;5.53;;;25.80;97.30;;;;;;4945670;28;20183;-66
2023/08/18 12:47:17;;;;;;;9.23;5.50;;;26.00;97.30;;;;;;4931425;29;20202;-67
2023/08/18 12:49:45;;;;;;;6.63;4.73;;;26.20;97.30;;;;;;4947475;28;21022;-66
2023/08/18 12:52:11;;;;;;;7.73;5.73;;;26.30;97.30;;;;;;4930440;29;20698;-66
2023/08/18 12:54:37;;;;;;;6.13;4.33;;;26.40;97.30;;;;;;4948332;28;20426;-66
2023/08/18 12:57:02;;;;;;;7.80;6.60;;;26.50;97.30;;;;;;4947524;28;20423;-67
2023/08/18 12:59:28;;;;;;;12.93;6.90;;;26.60;97.30;;;;;;4931889;29;20735;-67
2023/08/18 13:01:53;;;;;;;11.33;4.70;;;26.50;97.30;;;;;;4948215;28;20697;-67
2023/08/18 13:04:19;;;;;;;8.57;4.37;;;26.40;97.30;;;;;;4931216;29;20179;-67
2023/08/18 13:06:44;;;;;;;10.33;5.47;;;26.30;97.30;;;;;;4934023;29;20190;-67
2023/08/18 13:09:10;;;;;;;4.70;4.20;;;26.20;97.30;;;;;;4934352;28;20203;-67
2023/08/18 13:11:36;;;;;;;8.47;3.83;;;26.20;97.30;;;;;;4950925;28;20690;-67
2023/08/18 13:14:02;;;;;;;11.43;5.70;;;26.30;97.30;;;;;;4934518;28;20269;-67
2023/08/18 13:16:28;;;;;;;5.13;2.87;;;26.40;97.30;;;;;;4949690;28;20179;-67
2023/08/18 13:18:54;;;;;;;8.67;4.30;;;26.60;97.30;;;;;;4950939;28;20430;-67
2023/08/18 13:21:20;;;;;;;18.23;4.57;;;26.70;97.30;;;;;;4949358;28;20261;-66
2023/08/18 13:23:45;;;;;;;6.87;3.43;;;26.90;97.30;;;;;;4948892;28;20211;-67
2023/08/18 13:26:11;;;;;;;8.70;4.10;;;27.00;97.30;;;;;;4934267;28;20179;-66
2023/08/18 13:28:37;;;;;;;9.53;5.30;;;27.10;97.30;;;;;;4949521;28;20270;-67
2023/08/18 13:31:02;;;;;;;9.17;5.47;;;27.20;97.30;;;;;;4932695;28;20497;-67
2023/08/18 13:33:28;;;;;;;9.30;6.03;;;27.20;97.30;;;;;;4947134;28;20234;-66
2023/08/18 13:35:54;;;;;;;3.97;3.77;;;27.20;97.30;;;;;;4931768;28;20654;-64
2023/08/18 13:38:19;;;;;;;7.10;4.33;;;27.20;97.30;;;;;;4949840;28;20259;-64
2023/08/18 13:40:49;;;;;;;9.63;6.67;;;27.20;97.30;;;;;;4947651;28;20203;-64
2023/08/18 13:43:15;;;;;;;12.60;4.30;;;27.30;97.30;;;;;;4948095;28;20179;-63
2023/08/18 13:45:40;;;;;;;8.50;5.10;;;27.40;97.30;;;;;;4949757;28;20414;-65
2023/08/18 13:48:06;;;;;;;10.03;5.13;;;27.60;97.30;;;;;;4959579;28;20207;-64
2023/08/18 13:50:32;;;;;;;6.87;4.60;;;27.60;97.30;;;;;;4951847;28;20218;-63
2023/08/18 13:52:57;;;;;;;6.87;5.53;;;27.60;97.30;;;;;;4959890;28;20178;-63
2023/08/18 13:55:23;;;;;;;8.40;5.07;;;27.70;97.30;;;;;;4951798;28;20671;-63
2023/08/18 13:57:49;;;;;;;13.37;5.30;;;27.70;97.30;;;;;;4934669;29;20186;-63
2023/08/18 14:00:16;;;;;;;6.43;4.73;;;27.70;97.30;;;;;;4934184;28;20411;-63
2023/08/18 14:02:41;;;;;;;6.03;3.60;;;27.80;97.30;;;;;;4951751;28;20242;-63
2023/08/18 14:05:09;;;;;;;14.40;5.87;;;27.90;97.30;;;;;;4951726;28;20423;-63
2023/08/18 14:07:35;;;;;;;7.20;4.20;;;28.00;97.30;;;;;;4931625;29;20183;-63
2023/08/18 14:10:03;;;;;;;10.23;4.47;;;28.10;97.30;;;;;;4948785;28;20451;-63
2023/08/18 14:12:28;;;;;;;10.83;3.93;;;28.10;97.30;;;;;;4957535;28;20463;-63
2023/08/18 14:14:54;;;;;;;5.33;3.40;;;28.10;97.30;;;;;;4954913;28;20429;-63
2023/08/18 14:17:50;;;;;;;3.77;3.60;;;28.20;97.30;;;;;;4940049;29;20183;-63
2023/08/18 14:20:18;;;;;;;5.17;4.00;;;28.30;97.30;;;;;;4949625;28;20265;-64
2023/08/18 14:22:45;;;;;;;6.57;4.90;;;28.30;97.30;;;;;;4950083;29;20453;-64
2023/08/18 14:25:11;;;;;;;9.90;5.53;;;28.40;97.30;;;;;;4932722;28;20430;-63
2023/08/18 14:27:38;;;;;;;8.00;4.57;;;28.50;97.30;;;;;;4950534;28;20501;-63
2023/08/18 14:30:05;;;;;;;6.90;4.27;;;28.50;97.30;;;;;;4950173;28;20473;-63
2023/08/18 14:32:34;;;;;;;6.00;3.73;;;28.60;97.30;;;;;;4950071;28;20421;-64
2023/08/18 14:35:04;;;;;;;9.90;3.97;;;28.60;97.30;;;;;;4940568;28;20506;-64
2023/08/18 14:37:34;;;;;;;7.67;4.50;;;28.70;97.30;;;;;;4937569;28;20769;-64
2023/08/18 14:40:01;;;;;;;8.10;5.07;;;28.80;97.30;;;;;;4959789;28;20442;-64
2023/08/18 14:42:27;;;;;;;10.30;4.20;;;28.80;97.30;;;;;;4954709;28;20450;-64
2023/08/18 14:44:52;;;;;;;13.60;4.10;;;28.80;97.30;;;;;;4947106;28;20423;-63
2023/08/18 14:47:18;;;;;;;10.97;5.90;;;28.80;97.30;;;;;;4948295;28;20253;-63
2023/08/18 14:49:44;;;;;;;6.13;3.30;;;28.80;97.30;;;;;;4949502;28;20213;-63
2023/08/18 14:52:09;;;;;;;7.80;4.57;;;28.90;97.30;;;;;;4949940;28;20203;-64
2023/08/18 14:54:35;;;;;;;5.03;4.73;;;28.90;97.30;;;;;;4952055;28;20183;-64
2023/08/18 14:57:05;;;;;;;8.17;3.67;;;28.90;97.30;;;;;;4942647;28;20667;-62
2023/08/18 14:59:38;;;;;;;4.30;2.67;;;29.00;97.30;;;;;;4952174;28;20206;-63
2023/08/18 15:02:07;;;;;;;6.50;4.93;;;29.10;97.30;;;;;;4951921;28;20500;-63
2023/08/18 15:04:33;;;;;;;4.50;4.20;;;29.10;97.30;;;;;;4934662;29;20534;-63
2023/08/18 15:06:59;;;;;;;7.03;3.43;;;29.20;97.30;;;;;;4941742;28;20764;-63
2023/08/18 15:09:25;;;;;;;3.90;2.93;;;29.20;97.30;;;;;;4937960;29;21068;-63
2023/08/18 15:11:50;;;;;;;9.10;3.70;;;29.30;97.30;;;;;;4950569;28;20241;-63
2023/08/18 15:14:16;;;;;;;13.70;4.53;;;29.30;97.30;;;;;;4968993;28;20205;-63
2023/08/18 15:16:42;;;;;;;7.27;3.47;;;29.40;97.30;;;;;;4952635;28;20206;-63
2023/08/18 15:19:07;;;;;;;9.47;3.90;;;29.40;97.30;;;;;;4944617;28;20201;-63
2023/08/18 15:21:33;;;;;;;7.83;4.27;;;29.40;97.00;;;;;;4959857;28;20695;-63
2023/08/18 15:24:09;;;;;;;3.80;2.73;;;29.50;96.70;;;;;;4969690;28;20539;-63
2023/08/18 15:26:35;;;;;;;6.93;4.37;;;29.50;96.70;;;;;;4965979;28;20204;-63
2023/08/18 15:29:01;;;;;;;5.70;4.20;;;29.60;96.80;;;;;;4963043;28;20459;-63
2023/08/18 15:31:30;;;;;;;6.83;3.57;;;29.70;96.70;;;;;;4951563;28;20454;-63
2023/08/18 15:33:59;;;;;;;6.87;3.57;;;29.80;96.00;;;;;;4942672;28;20504;-63
2023/08/18 15:36:25;;;;;;;5.63;3.17;;;29.80;96.60;;;;;;4959589;28;20811;-63
2023/08/18 15:38:50;;;;;;;2.40;2.30;;;29.90;96.10;;;;;;4959678;28;20414;-63
2023/08/18 15:41:16;;;;;;;3.40;2.77;;;29.90;94.90;;;;;;4955319;28;20254;-63
2023/08/18 15:43:41;;;;;;;3.93;2.53;;;29.90;94.80;;;;;;4962650;28;20194;-63
2023/08/18 15:46:07;;;;;;;3.83;3.00;;;30.00;95.10;;;;;;4954276;28;20643;-63
2023/08/18 15:48:34;;;;;;;4.93;2.63;;;30.10;95.50;;;;;;4934370;29;20218;-63
2023/08/18 15:51:00;;;;;;;6.53;3.67;;;30.10;95.20;;;;;;4939371;28;20587;-63
2023/08/18 15:53:25;;;;;;;7.60;3.77;;;30.20;94.50;;;;;;4959966;28;20183;-63
2023/08/18 15:55:51;;;;;;;5.33;3.47;;;30.20;94.50;;;;;;4941542;28;20331;-63
2023/08/18 15:58:19;;;;;;;4.23;2.80;;;30.30;94.20;;;;;;4952736;28;20282;-63
2023/08/18 16:00:44;;;;;;;7.20;4.57;;;30.30;94.20;;;;;;4950321;28;20293;-63
2023/08/18 16:03:11;;;;;;;7.03;2.80;;;30.40;94.30;;;;;;4932643;28;20982;-63
2023/08/18 16:05:37;;;;;;;9.60;5.07;;;30.40;94.20;;;;;;4949711;28;20210;-63
2023/08/18 16:08:04;;;;;;;3.70;2.70;;;30.50;93.80;;;;;;4958935;28;20428;-63
2023/08/18 16:10:30;;;;;;;4.73;2.63;;;30.50;93.90;;;;;;4958291;28;20591;-63
2023/08/18 16:12:57;;;;;;;18.40;4.50;;;30.50;93.50;;;;;;4959380;28;20426;-63
2023/08/18 16:15:25;;;;;;;2.57;1.73;;;30.40;93.00;;;;;;4960031;28;20541;-63
2023/08/18 16:17:51;;;;;;;5.27;4.03;;;30.40;93.10;;;;;;4940908;28;20430;-63
2023/08/18 16:20:17;;;;;;;3.03;2.50;;;30.40;93.20;;;;;;4960644;28;20426;-63
2023/08/18 16:22:43;;;;;;;9.30;3.90;;;30.40;93.30;;;;;;4972481;23;20784;-63
2023/08/18 16:25:10;;;;;;;3.57;2.70;;;30.40;93.50;;;;;;4954087;28;20186;-64
2023/08/18 16:27:36;;;;;;;4.43;3.33;;;30.50;93.40;;;;;;4970782;28;20472;-63
2023/08/18 16:30:02;;;;;;;3.13;2.93;;;30.40;93.60;;;;;;4953500;28;20465;-64
2023/08/18 16:32:29;;;;;;;4.97;3.50;;;30.40;93.20;;;;;;4963248;28;20214;-64
2023/08/18 16:34:55;;;;;;;6.87;3.87;;;30.40;93.10;;;;;;4971379;28;20422;-63
2023/08/18 16:37:21;;;;;;;6.00;3.50;;;30.40;93.70;;;;;;4971485;28;20775;-63
2023/08/18 16:39:46;;;;;;;3.23;2.43;;;30.40;93.80;;;;;;4954061;28;20179;-64